createdAt,value
2022-08-07T00:01:44.219Z,17.64
2022-08-07T00:04:24.466Z,17.57
2022-08-07T00:06:54.011Z,17.56
2022-08-07T00:09:35.427Z,17.38
2022-08-07T00:12:06.023Z,17.41
2022-08-07T00:14:38.462Z,17.36
2022-08-07T00:17:13.453Z,17.30
2022-08-07T00:20:01.498Z,17.40
2022-08-07T00:22:35.426Z,17.25
2022-08-07T00:25:15.854Z,17.31
2022-08-07T00:27:52.796Z,17.20
2022-08-07T00:30:27.296Z,17.16
2022-08-07T00:32:59.650Z,17.20
2022-08-07T00:35:30.492Z,17.19
2022-08-07T00:38:00.421Z,17.06
2022-08-07T00:40:39.044Z,17.03
2022-08-07T00:43:58.671Z,17.14
2022-08-07T00:46:02.015Z,17.15
2022-08-07T00:48:32.667Z,17.10
2022-08-07T00:51:03.156Z,17.09
2022-08-07T00:53:39.046Z,17.03
2022-08-07T00:56:21.086Z,16.99
2022-08-07T00:58:50.485Z,17.05
2022-08-07T01:01:21.463Z,16.96
2022-08-07T01:03:55.954Z,16.85
2022-08-07T01:06:30.701Z,16.78
2022-08-07T01:09:02.803Z,16.88
2022-08-07T01:12:10.025Z,16.86
2022-08-07T01:14:28.380Z,16.85
2022-08-07T01:17:00.618Z,16.81
2022-08-07T01:19:35.087Z,16.84
2022-08-07T01:22:16.237Z,16.67
2022-08-07T01:24:53.497Z,16.73
2022-08-07T01:27:24.802Z,16.64
2022-08-07T01:30:03.737Z,16.69
2022-08-07T01:32:33.424Z,16.71
2022-08-07T01:35:04.746Z,16.69
2022-08-07T01:37:35.682Z,16.64
2022-08-07T01:40:14.969Z,16.56
2022-08-07T01:42:58.507Z,16.62
2022-08-07T01:45:37.112Z,16.59
2022-08-07T01:48:20.459Z,16.58
2022-08-07T01:51:24.282Z,16.56
2022-08-07T01:54:08.529Z,16.50
2022-08-07T01:56:50.437Z,16.48
2022-08-07T01:59:30.804Z,16.45
2022-08-07T02:02:10.609Z,16.46
2022-08-07T02:04:55.874Z,16.45
2022-08-07T02:07:36.228Z,16.34
2022-08-07T02:10:27.379Z,16.27
2022-08-07T02:13:02.523Z,16.40
2022-08-07T02:15:41.345Z,16.41
2022-08-07T02:18:13.877Z,16.32
2022-08-07T02:20:48.542Z,16.29
2022-08-07T02:23:25.063Z,16.34
2022-08-07T02:26:31.043Z,16.17
2022-08-07T02:28:49.659Z,16.23
2022-08-07T02:31:28.831Z,16.27
2022-08-07T02:34:02.895Z,16.22
2022-08-07T02:36:38.177Z,16.21
2022-08-07T02:39:43.267Z,15.94
2022-08-07T02:42:09.848Z,16.13
2022-08-07T02:44:49.952Z,15.99
2022-08-07T02:47:25.287Z,16.16
2022-08-07T02:50:03.946Z,16.12
2022-08-07T02:52:41.570Z,16.06
2022-08-07T02:55:28.801Z,16.14
2022-08-07T02:58:15.745Z,16.02
2022-08-07T03:00:46.814Z,16.11
2022-08-07T03:03:22.598Z,15.94
2022-08-07T03:05:57.463Z,15.96
2022-08-07T03:08:29.477Z,15.99
2022-08-07T03:11:02.564Z,15.94
2022-08-07T03:13:49.774Z,15.87
2022-08-07T03:16:23.074Z,15.90
2022-08-07T03:18:59.451Z,15.79
2022-08-07T03:21:32.970Z,15.93
2022-08-07T03:24:18.027Z,15.85
2022-08-07T03:26:58.986Z,15.86
2022-08-07T03:29:44.676Z,15.86
2022-08-07T03:32:34.961Z,15.86
2022-08-07T03:35:17.362Z,15.72
2022-08-07T03:37:55.975Z,15.83
2022-08-07T03:40:36.571Z,15.73
2022-08-07T03:43:14.569Z,15.78
2022-08-07T03:45:51.034Z,15.76
2022-08-07T03:48:25.927Z,15.72
2022-08-07T03:50:57.892Z,15.62
2022-08-07T03:54:01.859Z,15.73
2022-08-07T03:56:33.572Z,15.72
2022-08-07T03:59:13.444Z,15.70
2022-08-07T04:01:54.686Z,15.69
2022-08-07T04:04:26.506Z,15.61
2022-08-07T04:07:01.050Z,15.70
2022-08-07T04:09:45.324Z,15.63
2022-08-07T04:12:28.460Z,15.71
2022-08-07T04:15:00.797Z,15.64
2022-08-07T04:18:58.298Z,15.64
2022-08-07T04:20:25.838Z,15.48
2022-08-07T04:23:01.426Z,15.54
2022-08-07T04:25:39.303Z,15.60
2022-08-07T04:28:13.312Z,15.58
2022-08-07T04:30:56.765Z,15.59
2022-08-07T04:33:32.118Z,15.60
2022-08-07T04:36:09.118Z,15.61
2022-08-07T04:38:40.698Z,15.61
2022-08-07T04:41:18.150Z,15.58
2022-08-07T04:44:11.722Z,15.53
2022-08-07T04:47:04.173Z,15.53
2022-08-07T04:49:57.887Z,15.44
2022-08-07T04:52:51.415Z,15.35
2022-08-07T04:58:11.902Z,15.31
2022-08-07T04:59:07.712Z,15.46
2022-08-07T05:01:36.723Z,15.44
2022-08-07T05:04:17.946Z,15.45
2022-08-07T05:07:20.466Z,15.19
2022-08-07T05:10:00.985Z,15.38
2022-08-07T05:12:51.331Z,15.41
2022-08-07T05:15:31.896Z,15.11
2022-08-07T05:18:10.357Z,15.34
2022-08-07T05:20:49.150Z,15.49
2022-08-07T05:23:29.828Z,15.47
2022-08-07T05:26:13.869Z,15.43
2022-08-07T05:28:56.084Z,15.54
2022-08-07T05:31:37.804Z,15.49
2022-08-07T05:34:15.755Z,15.44
2022-08-07T05:36:52.817Z,15.57
2022-08-07T05:40:16.750Z,15.51
2022-08-07T05:42:40.092Z,15.60
2022-08-07T05:45:46.122Z,15.62
2022-08-07T05:48:07.856Z,15.63
2022-08-07T05:50:42.902Z,15.60
2022-08-07T05:54:14.151Z,15.69
2022-08-07T05:56:10.089Z,15.76
2022-08-07T05:58:52.483Z,15.82
2022-08-07T06:01:34.859Z,15.85
2022-08-07T06:04:09.648Z,15.95
2022-08-07T06:06:46.442Z,16.04
2022-08-07T06:09:20.121Z,16.06
2022-08-07T06:11:52.453Z,16.11
2022-08-07T06:14:28.804Z,16.17
2022-08-07T06:17:07.058Z,16.23
2022-08-07T06:19:47.796Z,16.20
2022-08-07T06:22:38.496Z,16.34
2022-08-07T06:25:27.058Z,16.33
2022-08-07T06:28:07.586Z,16.42
2022-08-07T06:30:42.711Z,16.41
2022-08-07T06:33:20.594Z,16.57
2022-08-07T06:36:12.123Z,16.66
2022-08-07T06:38:58.816Z,16.58
2022-08-07T06:42:01.252Z,16.75
2022-08-07T06:45:17.960Z,16.73
2022-08-07T06:47:58.779Z,16.73
2022-08-07T06:50:47.838Z,16.73
2022-08-07T06:55:27.153Z,16.90
2022-08-07T06:56:16.241Z,16.90
2022-08-07T07:00:12.530Z,16.96
2022-08-07T07:01:48.809Z,17.03
2022-08-07T07:04:28.091Z,17.07
2022-08-07T07:07:10.771Z,17.22
2022-08-07T07:09:50.724Z,17.26
2022-08-07T07:12:36.511Z,17.31
2022-08-07T07:15:24.238Z,17.34
2022-08-07T07:18:05.644Z,17.34
2022-08-07T07:20:42.924Z,17.47
2022-08-07T07:24:08.377Z,17.57
2022-08-07T07:26:33.869Z,17.72
2022-08-07T07:29:56.955Z,17.77
2022-08-07T07:31:57.974Z,17.91
2022-08-07T07:34:33.208Z,18.01
2022-08-07T07:37:21.635Z,18.12
2022-08-07T07:40:01.406Z,18.41
2022-08-07T07:42:33.449Z,18.64
2022-08-07T07:45:05.607Z,18.93
2022-08-07T07:47:51.970Z,19.14
2022-08-07T07:50:33.160Z,19.35
2022-08-07T07:53:13.686Z,19.44
2022-08-07T07:55:57.870Z,19.73
2022-08-07T07:58:36.988Z,19.91
2022-08-07T08:02:03.684Z,20.04
2022-08-07T08:04:11.529Z,20.28
2022-08-07T08:06:50.863Z,20.42
2022-08-07T08:09:29.120Z,20.79
2022-08-07T08:12:05.204Z,20.95
2022-08-07T08:14:37.235Z,21.03
2022-08-07T08:17:32.483Z,21.04
2022-08-07T08:20:17.733Z,21.18
2022-08-07T08:23:14.239Z,21.36
2022-08-07T08:26:07.198Z,21.47
2022-08-07T08:28:44.860Z,21.51
2022-08-07T08:31:59.010Z,21.84
2022-08-07T08:34:27.133Z,21.92
2022-08-07T08:36:59.893Z,22.09
2022-08-07T08:39:39.339Z,22.14
2022-08-07T08:42:30.161Z,22.27
2022-08-07T08:45:15.554Z,22.60
2022-08-07T08:47:55.470Z,22.64
2022-08-07T08:50:39.476Z,22.97
2022-08-07T08:53:21.940Z,23.23
2022-08-07T08:56:03.898Z,23.38
2022-08-07T08:58:44.466Z,23.43
2022-08-07T09:01:21.866Z,23.30
2022-08-07T09:04:02.844Z,23.27
2022-08-07T09:06:50.685Z,23.43
2022-08-07T09:09:44.739Z,23.25
2022-08-07T09:12:39.095Z,23.30
2022-08-07T09:16:22.881Z,23.12
2022-08-07T09:18:58.515Z,23.09
2022-08-07T09:22:10.155Z,22.98
2022-08-07T09:24:59.687Z,22.97
2022-08-07T09:28:00.515Z,23.44
2022-08-07T09:30:46.441Z,23.64
2022-08-07T09:33:57.072Z,23.57
2022-08-07T09:36:43.107Z,23.18
2022-08-07T09:39:54.016Z,23.04
2022-08-07T09:42:41.907Z,23.21
2022-08-07T09:47:49.843Z,23.33
2022-08-07T09:48:29.626Z,23.64
2022-08-07T09:51:14.782Z,23.69
2022-08-07T09:54:04.986Z,23.66
2022-08-07T09:57:04.295Z,23.97
2022-08-07T10:00:07.940Z,23.86
2022-08-07T10:04:05.537Z,24.21
2022-08-07T10:06:55.603Z,24.72
2022-08-07T10:10:01.062Z,24.83
2022-08-07T10:12:59.687Z,25.21
2022-08-07T10:15:50.245Z,25.80
2022-08-07T10:18:44.499Z,26.09
2022-08-07T10:22:16.332Z,26.50
2022-08-07T10:25:22.569Z,26.47
2022-08-07T10:28:24.340Z,26.19
2022-08-07T10:31:12.094Z,26.38
2022-08-07T10:34:06.218Z,26.55
2022-08-07T10:37:12.480Z,26.38
2022-08-07T10:40:05.641Z,26.31
2022-08-07T10:42:43.982Z,26.34
2022-08-07T10:45:48.030Z,25.96
2022-08-07T10:48:41.554Z,26.03
2022-08-07T10:51:39.712Z,25.89
2022-08-07T10:54:18.474Z,25.91
2022-08-07T10:57:07.982Z,26.13
2022-08-07T11:00:08.839Z,26.63
2022-08-07T11:02:49.354Z,27.18
2022-08-07T11:05:50.624Z,27.41
2022-08-07T11:08:33.549Z,27.53
2022-08-07T11:11:10.306Z,27.59
2022-08-07T11:14:46.197Z,27.43
2022-08-07T11:16:49.346Z,27.21
2022-08-07T11:19:30.666Z,26.78
2022-08-07T11:22:26.572Z,26.80
2022-08-07T11:25:10.476Z,26.52
2022-08-07T11:28:02.585Z,26.68
2022-08-07T11:30:54.391Z,26.74
2022-08-07T11:33:54.235Z,26.83
2022-08-07T11:36:49.658Z,26.65
2022-08-07T11:40:00.023Z,26.54
2022-08-07T11:42:46.236Z,26.69
2022-08-07T11:45:40.673Z,27.14
2022-08-07T11:48:44.160Z,27.52
2022-08-07T11:51:46.816Z,28.00
2022-08-07T11:54:46.506Z,28.12
2022-08-07T11:58:00.640Z,27.97
2022-08-07T12:00:39.399Z,27.64
2022-08-07T12:03:50.824Z,27.64
2022-08-07T12:06:51.781Z,28.07
2022-08-07T12:09:37.621Z,28.41
2022-08-07T12:12:12.035Z,28.82
2022-08-07T12:14:55.352Z,28.69
2022-08-07T12:17:37.430Z,28.99
2022-08-07T12:20:30.103Z,29.55
2022-08-07T12:23:37.293Z,29.77
2022-08-07T12:26:28.569Z,29.27
2022-08-07T12:29:11.302Z,28.60
2022-08-07T12:31:53.097Z,28.28
2022-08-07T12:34:36.060Z,28.15
2022-08-07T12:37:08.119Z,28.01
2022-08-07T12:39:51.617Z,27.92
2022-08-07T12:42:32.062Z,27.46
2022-08-07T12:45:10.394Z,27.22
2022-08-07T12:47:54.896Z,27.04
2022-08-07T12:50:48.985Z,27.49
2022-08-07T12:53:30.255Z,28.25
2022-08-07T12:56:30.466Z,28.99
2022-08-07T12:59:08.108Z,29.53
2022-08-07T13:01:53.851Z,29.52
2022-08-07T13:04:49.084Z,30.01
2022-08-07T13:08:13.920Z,30.46
2022-08-07T13:11:01.158Z,30.96
2022-08-07T13:13:50.300Z,30.54
2022-08-07T13:16:30.840Z,30.26
2022-08-07T13:19:21.896Z,30.33
2022-08-07T13:22:19.779Z,30.12
2022-08-07T13:25:03.012Z,30.33
2022-08-07T13:28:11.458Z,30.70
2022-08-07T13:30:40.162Z,31.17
2022-08-07T13:34:30.213Z,31.45
2022-08-07T13:36:33.396Z,31.57
2022-08-07T13:39:48.967Z,31.89
2022-08-07T13:42:10.568Z,32.06
2022-08-07T13:44:43.308Z,31.93
2022-08-07T13:48:05.906Z,32.11
2022-08-07T13:50:32.541Z,32.11
2022-08-07T13:53:06.715Z,32.24
2022-08-07T13:55:54.252Z,31.79
2022-08-07T13:58:50.401Z,31.81
2022-08-07T14:01:29.247Z,31.81
2022-08-07T14:04:11.231Z,31.91
2022-08-07T14:06:50.313Z,32.26
2022-08-07T14:10:02.013Z,32.25
2022-08-07T14:12:28.128Z,32.69
2022-08-07T14:15:06.267Z,32.32
2022-08-07T14:18:24.530Z,32.49
2022-08-07T14:20:43.014Z,31.71
2022-08-07T14:23:31.340Z,31.54
2022-08-07T14:26:30.516Z,31.59
2022-08-07T14:30:02.996Z,30.89
2022-08-07T14:31:57.829Z,30.19
2022-08-07T14:34:33.117Z,29.74
2022-08-07T14:37:05.430Z,29.44
2022-08-07T14:40:15.466Z,29.52
2022-08-07T14:43:00.864Z,29.56
2022-08-07T14:45:46.367Z,29.85
2022-08-07T14:48:27.294Z,29.91
2022-08-07T14:51:01.559Z,30.21
2022-08-07T14:56:33.045Z,30.14
2022-08-07T14:59:13.734Z,29.73
2022-08-07T15:01:58.330Z,29.60
2022-08-07T15:04:29.038Z,29.70
2022-08-07T15:07:00.983Z,29.77
2022-08-07T15:09:57.974Z,29.68
2022-08-07T15:12:30.446Z,29.65
2022-08-07T15:15:08.382Z,30.06
2022-08-07T15:17:55.559Z,30.34
2022-08-07T15:20:55.236Z,30.79
2022-08-07T15:25:16.379Z,30.80
2022-08-07T15:26:33.366Z,31.08
2022-08-07T15:30:06.419Z,31.17
2022-08-07T15:32:04.918Z,31.37
2022-08-07T15:38:17.583Z,31.26
2022-08-07T15:43:53.476Z,30.97
2022-08-07T15:46:31.685Z,30.73
2022-08-07T15:52:02.991Z,30.81
2022-08-07T15:54:39.452Z,30.72
2022-08-07T15:57:39.229Z,30.57
2022-08-07T16:00:06.842Z,30.69
2022-08-07T16:02:49.214Z,30.20
2022-08-07T16:05:23.087Z,29.88
2022-08-07T16:08:33.590Z,29.07
2022-08-07T16:11:28.986Z,28.74
2022-08-07T16:14:09.001Z,28.07
2022-08-07T16:18:00.712Z,27.74
2022-08-07T16:20:34.662Z,27.43
2022-08-07T16:23:55.331Z,27.34
2022-08-07T16:26:58.788Z,27.23
2022-08-07T16:30:10.784Z,27.16
2022-08-07T16:32:54.393Z,27.23
2022-08-07T16:35:52.316Z,27.31
2022-08-07T16:39:01.232Z,27.29
2022-08-07T16:42:16.979Z,27.24
2022-08-07T16:45:19.152Z,27.26
2022-08-07T16:48:58.430Z,26.92
2022-08-07T16:51:57.626Z,26.82
2022-08-07T16:54:55.824Z,26.57
2022-08-07T16:58:02.095Z,26.70
2022-08-07T17:00:42.957Z,26.57
2022-08-07T17:03:58.106Z,26.46
2022-08-07T17:06:41.079Z,26.62
2022-08-07T17:10:06.594Z,26.53
2022-08-07T17:12:34.330Z,26.56
2022-08-07T17:15:20.137Z,26.58
2022-08-07T17:17:58.787Z,26.69
2022-08-07T17:20:37.394Z,26.72
2022-08-07T17:23:32.103Z,26.68
2022-08-07T17:26:24.248Z,26.46
2022-08-07T17:29:18.346Z,26.32
2022-08-07T17:32:31.287Z,26.35
2022-08-07T17:35:50.302Z,26.44
2022-08-07T17:38:32.258Z,26.67
2022-08-07T17:42:01.140Z,26.69
2022-08-07T17:44:33.252Z,26.75
2022-08-07T17:47:17.092Z,26.75
2022-08-07T17:50:04.731Z,26.69
2022-08-07T17:52:44.495Z,26.52
2022-08-07T17:56:00.364Z,26.54
2022-08-07T17:58:30.530Z,26.54
2022-08-07T18:01:20.572Z,26.59
2022-08-07T18:04:16.313Z,26.54
2022-08-07T18:07:19.653Z,26.55
2022-08-07T18:10:06.863Z,26.63
2022-08-07T18:13:09.939Z,26.54
2022-08-07T18:16:08.618Z,26.52
2022-08-07T18:21:04.141Z,26.31
2022-08-07T18:21:58.352Z,26.00
2022-08-07T18:24:36.788Z,26.05
2022-08-07T18:27:38.339Z,25.91
2022-08-07T18:30:33.067Z,25.97
2022-08-07T18:33:39.067Z,25.81
2022-08-07T18:36:41.045Z,25.67
2022-08-07T18:40:07.919Z,25.55
2022-08-07T18:42:27.482Z,25.45
2022-08-07T18:45:40.041Z,25.33
2022-08-07T18:48:09.446Z,25.31
2022-08-07T18:51:09.205Z,25.14
2022-08-07T18:54:05.174Z,25.07
2022-08-07T18:57:30.751Z,25.12
2022-08-07T19:00:32.484Z,25.08
2022-08-07T19:03:12.267Z,25.02
2022-08-07T19:06:03.371Z,24.99
2022-08-07T19:09:09.613Z,24.97
2022-08-07T19:12:26.686Z,24.88
2022-08-07T19:16:03.020Z,24.81
2022-08-07T19:18:18.349Z,24.81
2022-08-07T19:21:47.884Z,24.75
2022-08-07T19:24:32.327Z,24.71
2022-08-07T19:28:29.919Z,24.59
2022-08-07T19:31:03.754Z,24.57
2022-08-07T19:32:59.726Z,24.53
2022-08-07T19:35:33.755Z,24.46
2022-08-07T19:38:15.120Z,24.45
2022-08-07T19:40:51.485Z,24.46
2022-08-07T19:43:50.029Z,24.46
2022-08-07T19:46:17.767Z,24.48
2022-08-07T19:48:53.492Z,24.46
2022-08-07T19:51:52.364Z,24.37
2022-08-07T19:54:31.665Z,24.41
2022-08-07T19:58:02.927Z,24.38
2022-08-07T20:00:10.170Z,24.29
2022-08-07T20:02:52.113Z,24.27
2022-08-07T20:05:27.992Z,24.20
2022-08-07T20:08:02.542Z,24.14
2022-08-07T20:10:54.483Z,24.13
2022-08-07T20:13:36.063Z,24.08
2022-08-07T20:16:32.383Z,24.03
2022-08-07T20:19:01.350Z,23.98
2022-08-07T20:21:46.736Z,23.88
2022-08-07T20:24:28.698Z,23.88
2022-08-07T20:27:03.089Z,23.80
2022-08-07T20:29:49.050Z,23.74
2022-08-07T20:32:40.127Z,23.67
2022-08-07T20:35:15.815Z,23.63
2022-08-07T20:37:55.641Z,23.61
2022-08-07T20:40:34.316Z,23.57
2022-08-07T20:43:09.631Z,23.60
2022-08-07T20:46:26.125Z,23.64
2022-08-07T20:49:54.319Z,23.67
2022-08-07T20:51:40.279Z,23.71
2022-08-07T20:54:15.327Z,23.71
2022-08-07T20:57:04.617Z,23.72
2022-08-07T21:00:07.502Z,23.77
2022-08-07T21:02:54.098Z,23.82
2022-08-07T21:05:51.342Z,23.76
2022-08-07T21:08:37.002Z,23.78
2022-08-07T21:11:14.469Z,23.86
2022-08-07T21:14:16.665Z,23.86
2022-08-07T21:16:56.960Z,23.89
2022-08-07T21:19:51.039Z,23.89
2022-08-07T21:22:33.862Z,23.83
2022-08-07T21:25:21.585Z,23.86
2022-08-07T21:28:13.543Z,23.84
2022-08-07T21:30:58.035Z,23.80
2022-08-07T21:33:41.340Z,23.80
2022-08-07T21:36:32.343Z,23.76
2022-08-07T21:39:45.293Z,23.79
2022-08-07T21:42:42.902Z,23.81
2022-08-07T21:46:07.806Z,23.76
2022-08-07T21:48:33.520Z,23.66
2022-08-07T21:51:19.481Z,23.53
2022-08-07T21:54:02.335Z,23.45
2022-08-07T21:56:49.134Z,23.30
2022-08-07T22:00:02.754Z,23.25
2022-08-07T22:02:35.823Z,23.09
2022-08-07T22:05:08.635Z,22.98
2022-08-07T22:07:58.762Z,22.96
2022-08-07T22:10:37.370Z,22.85
2022-08-07T22:13:16.020Z,22.83
2022-08-07T22:16:42.500Z,22.78
2022-08-07T22:18:54.569Z,22.75
2022-08-07T22:22:01.935Z,22.72
2022-08-07T22:24:41.987Z,22.67
2022-08-07T22:27:20.906Z,22.66
2022-08-07T22:30:13.647Z,22.53
2022-08-07T22:33:02.632Z,22.55
2022-08-07T22:35:43.182Z,22.52
2022-08-07T22:38:29.858Z,22.47
2022-08-07T22:41:09.060Z,22.43
2022-08-07T22:43:45.050Z,22.42
2022-08-07T22:47:02.924Z,22.33
2022-08-07T22:49:56.530Z,22.22
2022-08-07T22:52:49.603Z,22.16
2022-08-07T22:55:47.888Z,22.09
2022-08-07T22:58:54.097Z,21.92
2022-08-07T23:01:58.973Z,21.91
2022-08-07T23:06:07.013Z,21.79
2022-08-07T23:08:37.321Z,21.53
2022-08-07T23:11:45.820Z,21.64
2022-08-07T23:14:34.646Z,21.44
2022-08-07T23:17:41.672Z,21.28
2022-08-07T23:20:53.501Z,21.34
2022-08-07T23:24:07.025Z,21.27
2022-08-07T23:27:08.252Z,21.21
2022-08-07T23:30:35.817Z,21.24
2022-08-07T23:34:33.727Z,21.13
2022-08-07T23:37:19.493Z,21.11
2022-08-07T23:39:55.643Z,20.89
2022-08-07T23:42:35.357Z,20.97
2022-08-07T23:45:33.447Z,20.67
2022-08-07T23:48:43.477Z,20.83
2022-08-07T23:53:00.637Z,20.67
2022-08-07T23:54:44.555Z,20.73
2022-08-07T23:57:30.514Z,20.55
